sensor_id;sensor_type;location;lat;lon;timestamp;P1;durP1;ratioP1;P2;durP2;ratioP2
52948;SDS011;38812;50.942;3.644;2022-08-05T00:01:00;6.65;;;1.95;;
52948;SDS011;38812;50.942;3.644;2022-08-05T00:03:25;6.90;;;2.10;;
52948;SDS011;38812;50.942;3.644;2022-08-05T00:05:51;5.20;;;1.95;;
52948;SDS011;38812;50.942;3.644;2022-08-05T00:08:16;7.05;;;2.28;;
52948;SDS011;38812;50.942;3.644;2022-08-05T00:10:41;4.93;;;2.17;;
52948;SDS011;38812;50.942;3.644;2022-08-05T00:13:07;8.82;;;2.85;;
52948;SDS011;38812;50.942;3.644;2022-08-05T00:15:32;6.65;;;2.33;;
52948;SDS011;38812;50.942;3.644;2022-08-05T00:17:57;11.07;;;2.83;;
52948;SDS011;38812;50.942;3.644;2022-08-05T00:20:23;8.38;;;2.42;;
52948;SDS011;38812;50.942;3.644;2022-08-05T00:22:48;3.92;;;2.33;;
52948;SDS011;38812;50.942;3.644;2022-08-05T00:25:14;9.35;;;2.40;;
52948;SDS011;38812;50.942;3.644;2022-08-05T00:27:39;9.82;;;3.35;;
52948;SDS011;38812;50.942;3.644;2022-08-05T00:30:05;10.48;;;2.58;;
52948;SDS011;38812;50.942;3.644;2022-08-05T00:32:30;6.57;;;2.67;;
52948;SDS011;38812;50.942;3.644;2022-08-05T00:34:56;7.95;;;2.80;;
52948;SDS011;38812;50.942;3.644;2022-08-05T00:37:21;11.07;;;2.80;;
52948;SDS011;38812;50.942;3.644;2022-08-05T00:39:47;11.88;;;2.72;;
52948;SDS011;38812;50.942;3.644;2022-08-05T00:42:12;7.40;;;2.63;;
52948;SDS011;38812;50.942;3.644;2022-08-05T00:44:40;9.25;;;2.65;;
52948;SDS011;38812;50.942;3.644;2022-08-05T00:47:06;11.30;;;2.95;;
52948;SDS011;38812;50.942;3.644;2022-08-05T00:49:31;8.90;;;2.40;;
52948;SDS011;38812;50.942;3.644;2022-08-05T00:51:57;9.07;;;3.15;;
52948;SDS011;38812;50.942;3.644;2022-08-05T00:54:22;10.65;;;3.15;;
52948;SDS011;38812;50.942;3.644;2022-08-05T00:56:47;8.60;;;3.30;;
52948;SDS011;38812;50.942;3.644;2022-08-05T00:59:13;15.43;;;4.07;;
52948;SDS011;38812;50.942;3.644;2022-08-05T01:01:38;11.98;;;3.08;;
52948;SDS011;38812;50.942;3.644;2022-08-05T01:04:04;10.05;;;2.90;;
52948;SDS011;38812;50.942;3.644;2022-08-05T01:06:29;14.23;;;3.50;;
52948;SDS011;38812;50.942;3.644;2022-08-05T01:08:54;10.13;;;3.08;;
52948;SDS011;38812;50.942;3.644;2022-08-05T01:16:48;9.55;;;3.72;;
52948;SDS011;38812;50.942;3.644;2022-08-05T01:24:43;8.43;;;3.50;;
52948;SDS011;38812;50.942;3.644;2022-08-05T01:29:46;7.40;;;3.10;;
52948;SDS011;38812;50.942;3.644;2022-08-05T01:32:15;11.82;;;4.28;;
52948;SDS011;38812;50.942;3.644;2022-08-05T01:35:21;8.23;;;3.33;;
52948;SDS011;38812;50.942;3.644;2022-08-05T01:37:53;8.70;;;3.30;;
52948;SDS011;38812;50.942;3.644;2022-08-05T01:40:21;12.60;;;3.80;;
52948;SDS011;38812;50.942;3.644;2022-08-05T01:42:50;9.63;;;3.20;;
52948;SDS011;38812;50.942;3.644;2022-08-05T01:45:17;10.70;;;3.33;;
52948;SDS011;38812;50.942;3.644;2022-08-05T01:47:44;12.85;;;3.63;;
52948;SDS011;38812;50.942;3.644;2022-08-05T01:50:19;8.73;;;3.60;;
52948;SDS011;38812;50.942;3.644;2022-08-05T01:52:49;11.80;;;3.35;;
52948;SDS011;38812;50.942;3.644;2022-08-05T01:55:18;10.68;;;2.95;;
52948;SDS011;38812;50.942;3.644;2022-08-05T01:57:46;5.55;;;2.40;;
52948;SDS011;38812;50.942;3.644;2022-08-05T02:00:14;9.20;;;2.90;;
52948;SDS011;38812;50.942;3.644;2022-08-05T02:02:42;9.38;;;3.13;;
52948;SDS011;38812;50.942;3.644;2022-08-05T02:05:13;15.02;;;3.38;;
52948;SDS011;38812;50.942;3.644;2022-08-05T02:07:40;12.50;;;3.35;;
52948;SDS011;38812;50.942;3.644;2022-08-05T02:10:08;6.25;;;2.50;;
52948;SDS011;38812;50.942;3.644;2022-08-05T02:17:47;12.88;;;4.30;;
52948;SDS011;38812;50.942;3.644;2022-08-05T02:20:21;9.13;;;3.20;;
52948;SDS011;38812;50.942;3.644;2022-08-05T02:22:52;8.10;;;3.15;;
52948;SDS011;38812;50.942;3.644;2022-08-05T02:25:28;11.55;;;3.47;;
52948;SDS011;38812;50.942;3.644;2022-08-05T02:27:56;6.97;;;3.10;;
52948;SDS011;38812;50.942;3.644;2022-08-05T02:30:24;9.20;;;2.80;;
52948;SDS011;38812;50.942;3.644;2022-08-05T02:32:53;11.85;;;2.92;;
52948;SDS011;38812;50.942;3.644;2022-08-05T02:35:20;7.78;;;3.30;;
52948;SDS011;38812;50.942;3.644;2022-08-05T02:37:47;8.73;;;2.90;;
52948;SDS011;38812;50.942;3.644;2022-08-05T02:40:16;9.02;;;2.85;;
52948;SDS011;38812;50.942;3.644;2022-08-05T02:42:42;8.07;;;2.63;;
52948;SDS011;38812;50.942;3.644;2022-08-05T02:45:10;3.83;;;2.50;;
52948;SDS011;38812;50.942;3.644;2022-08-05T02:47:36;5.30;;;2.80;;
52948;SDS011;38812;50.942;3.644;2022-08-05T02:50:04;12.68;;;3.42;;
52948;SDS011;38812;50.942;3.644;2022-08-05T02:52:31;8.75;;;3.00;;
52948;SDS011;38812;50.942;3.644;2022-08-05T02:54:58;6.80;;;2.53;;
52948;SDS011;38812;50.942;3.644;2022-08-05T02:57:25;10.52;;;2.97;;
52948;SDS011;38812;50.942;3.644;2022-08-05T02:59:51;9.77;;;3.22;;
52948;SDS011;38812;50.942;3.644;2022-08-05T03:02:18;10.25;;;3.45;;
52948;SDS011;38812;50.942;3.644;2022-08-05T03:04:46;15.30;;;3.65;;
52948;SDS011;38812;50.942;3.644;2022-08-05T03:07:14;16.17;;;4.20;;
52948;SDS011;38812;50.942;3.644;2022-08-05T03:09:43;9.25;;;3.28;;
52948;SDS011;38812;50.942;3.644;2022-08-05T03:12:09;15.40;;;3.63;;
52948;SDS011;38812;50.942;3.644;2022-08-05T03:14:52;8.98;;;3.22;;
52948;SDS011;38812;50.942;3.644;2022-08-05T03:17:18;11.60;;;3.22;;
52948;SDS011;38812;50.942;3.644;2022-08-05T03:19:43;9.30;;;3.88;;
52948;SDS011;38812;50.942;3.644;2022-08-05T03:22:08;10.18;;;3.60;;
52948;SDS011;38812;50.942;3.644;2022-08-05T03:24:34;12.98;;;3.42;;
52948;SDS011;38812;50.942;3.644;2022-08-05T03:26:59;10.23;;;3.10;;
52948;SDS011;38812;50.942;3.644;2022-08-05T03:29:25;10.65;;;4.25;;
52948;SDS011;38812;50.942;3.644;2022-08-05T03:31:51;9.70;;;3.78;;
52948;SDS011;38812;50.942;3.644;2022-08-05T03:34:16;5.35;;;3.17;;
52948;SDS011;38812;50.942;3.644;2022-08-05T03:36:43;7.78;;;3.97;;
52948;SDS011;38812;50.942;3.644;2022-08-05T03:39:09;10.02;;;4.72;;
52948;SDS011;38812;50.942;3.644;2022-08-05T03:41:34;13.10;;;4.60;;
52948;SDS011;38812;50.942;3.644;2022-08-05T03:44:00;10.13;;;3.58;;
52948;SDS011;38812;50.942;3.644;2022-08-05T03:46:25;13.48;;;4.32;;
52948;SDS011;38812;50.942;3.644;2022-08-05T03:48:51;10.30;;;4.18;;
52948;SDS011;38812;50.942;3.644;2022-08-05T03:51:19;13.00;;;4.00;;
52948;SDS011;38812;50.942;3.644;2022-08-05T03:53:54;10.02;;;3.92;;
52948;SDS011;38812;50.942;3.644;2022-08-05T03:56:30;10.35;;;4.43;;
52948;SDS011;38812;50.942;3.644;2022-08-05T03:59:02;10.50;;;4.65;;
52948;SDS011;38812;50.942;3.644;2022-08-05T04:01:30;12.40;;;4.97;;
52948;SDS011;38812;50.942;3.644;2022-08-05T04:04:00;9.10;;;4.75;;
52948;SDS011;38812;50.942;3.644;2022-08-05T04:06:27;9.48;;;5.07;;
52948;SDS011;38812;50.942;3.644;2022-08-05T04:08:53;14.02;;;4.15;;
52948;SDS011;38812;50.942;3.644;2022-08-05T04:11:20;8.25;;;4.88;;
52948;SDS011;38812;50.942;3.644;2022-08-05T04:13:45;17.25;;;5.10;;
52948;SDS011;38812;50.942;3.644;2022-08-05T04:16:11;10.60;;;4.65;;
52948;SDS011;38812;50.942;3.644;2022-08-05T04:18:37;9.40;;;4.55;;
52948;SDS011;38812;50.942;3.644;2022-08-05T04:21:04;11.63;;;5.35;;
52948;SDS011;38812;50.942;3.644;2022-08-05T04:23:31;13.80;;;4.68;;
52948;SDS011;38812;50.942;3.644;2022-08-05T04:25:58;12.38;;;5.07;;
52948;SDS011;38812;50.942;3.644;2022-08-05T04:28:23;9.98;;;5.57;;
52948;SDS011;38812;50.942;3.644;2022-08-05T04:30:49;13.70;;;4.70;;
52948;SDS011;38812;50.942;3.644;2022-08-05T04:33:14;14.05;;;4.60;;
52948;SDS011;38812;50.942;3.644;2022-08-05T04:35:40;8.43;;;4.68;;
52948;SDS011;38812;50.942;3.644;2022-08-05T04:38:06;9.13;;;4.50;;
52948;SDS011;38812;50.942;3.644;2022-08-05T04:40:35;7.88;;;4.85;;
52948;SDS011;38812;50.942;3.644;2022-08-05T04:43:01;11.57;;;5.53;;
52948;SDS011;38812;50.942;3.644;2022-08-05T04:45:27;13.18;;;5.35;;
52948;SDS011;38812;50.942;3.644;2022-08-05T04:47:53;13.15;;;4.68;;
52948;SDS011;38812;50.942;3.644;2022-08-05T04:50:18;11.77;;;5.03;;
52948;SDS011;38812;50.942;3.644;2022-08-05T04:52:44;19.17;;;5.13;;
52948;SDS011;38812;50.942;3.644;2022-08-05T04:55:09;14.65;;;5.45;;
52948;SDS011;38812;50.942;3.644;2022-08-05T04:57:35;12.68;;;4.95;;
52948;SDS011;38812;50.942;3.644;2022-08-05T05:00:02;11.57;;;4.60;;
52948;SDS011;38812;50.942;3.644;2022-08-05T05:02:29;8.60;;;4.88;;
52948;SDS011;38812;50.942;3.644;2022-08-05T05:04:54;9.93;;;4.68;;
52948;SDS011;38812;50.942;3.644;2022-08-05T05:07:20;9.73;;;4.65;;
52948;SDS011;38812;50.942;3.644;2022-08-05T05:09:45;9.15;;;4.88;;
52948;SDS011;38812;50.942;3.644;2022-08-05T05:12:11;14.52;;;5.03;;
52948;SDS011;38812;50.942;3.644;2022-08-05T05:14:36;9.75;;;5.10;;
52948;SDS011;38812;50.942;3.644;2022-08-05T05:17:02;10.93;;;5.00;;
52948;SDS011;38812;50.942;3.644;2022-08-05T05:19:27;9.38;;;4.88;;
52948;SDS011;38812;50.942;3.644;2022-08-05T05:21:52;12.93;;;4.50;;
52948;SDS011;38812;50.942;3.644;2022-08-05T05:24:18;12.38;;;4.50;;
52948;SDS011;38812;50.942;3.644;2022-08-05T05:26:45;19.27;;;4.90;;
52948;SDS011;38812;50.942;3.644;2022-08-05T05:29:11;10.55;;;4.80;;
52948;SDS011;38812;50.942;3.644;2022-08-05T05:31:36;9.63;;;4.45;;
52948;SDS011;38812;50.942;3.644;2022-08-05T05:34:02;7.47;;;4.10;;
52948;SDS011;38812;50.942;3.644;2022-08-05T05:36:27;10.80;;;4.82;;
52948;SDS011;38812;50.942;3.644;2022-08-05T05:38:53;11.98;;;4.10;;
52948;SDS011;38812;50.942;3.644;2022-08-05T05:41:18;9.45;;;3.63;;
52948;SDS011;38812;50.942;3.644;2022-08-05T05:43:44;7.40;;;3.50;;
52948;SDS011;38812;50.942;3.644;2022-08-05T05:46:09;7.38;;;3.03;;
52948;SDS011;38812;50.942;3.644;2022-08-05T05:48:34;8.68;;;3.45;;
52948;SDS011;38812;50.942;3.644;2022-08-05T05:51:00;10.52;;;3.55;;
52948;SDS011;38812;50.942;3.644;2022-08-05T05:53:25;7.82;;;3.35;;
52948;SDS011;38812;50.942;3.644;2022-08-05T05:55:50;4.70;;;2.83;;
52948;SDS011;38812;50.942;3.644;2022-08-05T05:58:17;13.27;;;2.92;;
52948;SDS011;38812;50.942;3.644;2022-08-05T06:00:42;5.30;;;2.90;;
52948;SDS011;38812;50.942;3.644;2022-08-05T06:03:08;5.63;;;2.83;;
52948;SDS011;38812;50.942;3.644;2022-08-05T06:05:33;6.07;;;2.80;;
52948;SDS011;38812;50.942;3.644;2022-08-05T06:07:59;8.80;;;3.20;;
52948;SDS011;38812;50.942;3.644;2022-08-05T06:10:24;10.32;;;3.10;;
52948;SDS011;38812;50.942;3.644;2022-08-05T06:12:49;10.00;;;3.30;;
52948;SDS011;38812;50.942;3.644;2022-08-05T06:15:15;9.55;;;3.35;;
52948;SDS011;38812;50.942;3.644;2022-08-05T06:17:40;5.28;;;3.10;;
52948;SDS011;38812;50.942;3.644;2022-08-05T06:20:06;9.98;;;3.47;;
52948;SDS011;38812;50.942;3.644;2022-08-05T06:22:32;7.35;;;3.25;;
52948;SDS011;38812;50.942;3.644;2022-08-05T06:24:59;9.82;;;3.30;;
52948;SDS011;38812;50.942;3.644;2022-08-05T06:27:25;6.95;;;3.33;;
52948;SDS011;38812;50.942;3.644;2022-08-05T06:29:50;7.13;;;3.50;;
52948;SDS011;38812;50.942;3.644;2022-08-05T06:32:16;8.20;;;3.00;;
52948;SDS011;38812;50.942;3.644;2022-08-05T06:34:42;8.20;;;3.60;;
52948;SDS011;38812;50.942;3.644;2022-08-05T06:37:07;7.25;;;4.03;;
52948;SDS011;38812;50.942;3.644;2022-08-05T06:39:33;8.38;;;3.20;;
52948;SDS011;38812;50.942;3.644;2022-08-05T06:41:59;4.75;;;2.90;;
52948;SDS011;38812;50.942;3.644;2022-08-05T06:44:26;9.98;;;3.90;;
52948;SDS011;38812;50.942;3.644;2022-08-05T06:46:52;7.13;;;2.90;;
52948;SDS011;38812;50.942;3.644;2022-08-05T06:49:18;6.18;;;3.17;;
52948;SDS011;38812;50.942;3.644;2022-08-05T06:51:44;10.73;;;3.55;;
52948;SDS011;38812;50.942;3.644;2022-08-05T06:54:09;7.18;;;3.28;;
52948;SDS011;38812;50.942;3.644;2022-08-05T06:56:34;8.40;;;2.80;;
52948;SDS011;38812;50.942;3.644;2022-08-05T06:59:00;14.25;;;4.13;;
52948;SDS011;38812;50.942;3.644;2022-08-05T07:01:27;7.55;;;3.25;;
52948;SDS011;38812;50.942;3.644;2022-08-05T07:03:52;5.95;;;3.83;;
52948;SDS011;38812;50.942;3.644;2022-08-05T07:06:18;13.65;;;4.40;;
52948;SDS011;38812;50.942;3.644;2022-08-05T07:08:43;8.52;;;5.00;;
52948;SDS011;38812;50.942;3.644;2022-08-05T07:11:09;13.23;;;4.57;;
52948;SDS011;38812;50.942;3.644;2022-08-05T07:13:35;8.05;;;4.20;;
52948;SDS011;38812;50.942;3.644;2022-08-05T07:16:19;10.60;;;4.65;;
52948;SDS011;38812;50.942;3.644;2022-08-05T07:19:03;9.70;;;4.75;;
52948;SDS011;38812;50.942;3.644;2022-08-05T07:21:29;8.10;;;3.88;;
52948;SDS011;38812;50.942;3.644;2022-08-05T07:23:55;10.40;;;4.38;;
52948;SDS011;38812;50.942;3.644;2022-08-05T07:26:21;9.27;;;3.83;;
52948;SDS011;38812;50.942;3.644;2022-08-05T07:28:46;8.88;;;3.40;;
52948;SDS011;38812;50.942;3.644;2022-08-05T07:31:12;10.25;;;3.88;;
52948;SDS011;38812;50.942;3.644;2022-08-05T07:33:37;12.95;;;3.97;;
52948;SDS011;38812;50.942;3.644;2022-08-05T07:36:03;8.68;;;3.65;;
52948;SDS011;38812;50.942;3.644;2022-08-05T07:38:29;5.20;;;3.30;;
52948;SDS011;38812;50.942;3.644;2022-08-05T07:40:54;12.25;;;4.35;;
52948;SDS011;38812;50.942;3.644;2022-08-05T07:43:20;10.77;;;4.28;;
52948;SDS011;38812;50.942;3.644;2022-08-05T07:45:45;9.98;;;5.50;;
52948;SDS011;38812;50.942;3.644;2022-08-05T07:48:11;8.40;;;4.93;;
52948;SDS011;38812;50.942;3.644;2022-08-05T07:50:36;6.75;;;4.30;;
52948;SDS011;38812;50.942;3.644;2022-08-05T07:53:02;9.35;;;4.43;;
52948;SDS011;38812;50.942;3.644;2022-08-05T07:55:27;5.75;;;2.47;;
52948;SDS011;38812;50.942;3.644;2022-08-05T07:57:54;5.35;;;1.75;;
52948;SDS011;38812;50.942;3.644;2022-08-05T08:00:20;8.23;;;1.83;;
52948;SDS011;38812;50.942;3.644;2022-08-05T08:02:45;5.40;;;2.35;;
52948;SDS011;38812;50.942;3.644;2022-08-05T08:05:10;5.03;;;2.35;;
52948;SDS011;38812;50.942;3.644;2022-08-05T08:07:36;6.43;;;2.15;;
52948;SDS011;38812;50.942;3.644;2022-08-05T08:10:01;3.90;;;1.50;;
52948;SDS011;38812;50.942;3.644;2022-08-05T08:12:28;2.42;;;1.17;;
52948;SDS011;38812;50.942;3.644;2022-08-05T08:14:53;1.88;;;0.82;;
52948;SDS011;38812;50.942;3.644;2022-08-05T08:17:19;3.72;;;1.10;;
52948;SDS011;38812;50.942;3.644;2022-08-05T08:19:44;3.10;;;1.20;;
52948;SDS011;38812;50.942;3.644;2022-08-05T08:22:10;2.13;;;0.80;;
52948;SDS011;38812;50.942;3.644;2022-08-05T08:24:36;3.08;;;0.90;;
52948;SDS011;38812;50.942;3.644;2022-08-05T08:27:02;1.10;;;0.93;;
52948;SDS011;38812;50.942;3.644;2022-08-05T08:29:28;4.88;;;0.88;;
52948;SDS011;38812;50.942;3.644;2022-08-05T08:31:53;5.97;;;1.05;;
52948;SDS011;38812;50.942;3.644;2022-08-05T08:34:20;3.92;;;1.02;;
52948;SDS011;38812;50.942;3.644;2022-08-05T08:36:49;4.88;;;1.40;;
52948;SDS011;38812;50.942;3.644;2022-08-05T08:39:15;2.08;;;0.70;;
52948;SDS011;38812;50.942;3.644;2022-08-05T08:41:46;3.95;;;0.90;;
52948;SDS011;38812;50.942;3.644;2022-08-05T08:44:16;3.65;;;0.95;;
52948;SDS011;38812;50.942;3.644;2022-08-05T08:46:43;4.82;;;1.02;;
52948;SDS011;38812;50.942;3.644;2022-08-05T08:49:14;4.63;;;1.30;;
52948;SDS011;38812;50.942;3.644;2022-08-05T08:51:41;4.55;;;1.35;;
52948;SDS011;38812;50.942;3.644;2022-08-05T08:54:10;4.05;;;1.23;;
52948;SDS011;38812;50.942;3.644;2022-08-05T08:56:39;4.82;;;2.38;;
52948;SDS011;38812;50.942;3.644;2022-08-05T08:59:05;2.97;;;1.25;;
52948;SDS011;38812;50.942;3.644;2022-08-05T09:01:31;5.05;;;1.23;;
52948;SDS011;38812;50.942;3.644;2022-08-05T09:03:57;10.18;;;1.20;;
52948;SDS011;38812;50.942;3.644;2022-08-05T09:06:26;3.28;;;1.30;;
52948;SDS011;38812;50.942;3.644;2022-08-05T09:08:53;1.73;;;1.00;;
52948;SDS011;38812;50.942;3.644;2022-08-05T09:11:19;5.35;;;1.05;;
52948;SDS011;38812;50.942;3.644;2022-08-05T09:13:44;6.13;;;1.60;;
52948;SDS011;38812;50.942;3.644;2022-08-05T09:16:14;8.48;;;2.42;;
52948;SDS011;38812;50.942;3.644;2022-08-05T09:18:39;3.30;;;0.90;;
52948;SDS011;38812;50.942;3.644;2022-08-05T09:21:05;2.67;;;0.90;;
52948;SDS011;38812;50.942;3.644;2022-08-05T09:23:30;3.22;;;1.30;;
52948;SDS011;38812;50.942;3.644;2022-08-05T09:26:06;3.15;;;0.85;;
52948;SDS011;38812;50.942;3.644;2022-08-05T09:28:34;8.98;;;1.00;;
52948;SDS011;38812;50.942;3.644;2022-08-05T09:31:03;3.70;;;0.82;;
52948;SDS011;38812;50.942;3.644;2022-08-05T09:33:49;3.25;;;1.13;;
52948;SDS011;38812;50.942;3.644;2022-08-05T09:36:16;6.20;;;1.30;;
52948;SDS011;38812;50.942;3.644;2022-08-05T09:38:55;2.35;;;1.05;;
52948;SDS011;38812;50.942;3.644;2022-08-05T09:41:21;3.63;;;0.90;;
52948;SDS011;38812;50.942;3.644;2022-08-05T09:43:47;1.63;;;0.80;;
52948;SDS011;38812;50.942;3.644;2022-08-05T09:46:33;2.63;;;0.82;;
52948;SDS011;38812;50.942;3.644;2022-08-05T09:48:59;4.50;;;1.42;;
52948;SDS011;38812;50.942;3.644;2022-08-05T09:51:32;3.15;;;0.65;;
52948;SDS011;38812;50.942;3.644;2022-08-05T09:53:59;4.03;;;1.25;;
52948;SDS011;38812;50.942;3.644;2022-08-05T09:56:26;2.80;;;0.90;;
52948;SDS011;38812;50.942;3.644;2022-08-05T10:01:32;2.60;;;1.23;;
52948;SDS011;38812;50.942;3.644;2022-08-05T10:06:30;6.47;;;0.90;;
52948;SDS011;38812;50.942;3.644;2022-08-05T10:09:08;1.90;;;1.00;;
52948;SDS011;38812;50.942;3.644;2022-08-05T10:11:34;6.03;;;0.70;;
52948;SDS011;38812;50.942;3.644;2022-08-05T10:14:01;3.13;;;0.82;;
52948;SDS011;38812;50.942;3.644;2022-08-05T10:17:11;5.25;;;0.90;;
52948;SDS011;38812;50.942;3.644;2022-08-05T10:19:39;2.33;;;0.80;;
52948;SDS011;38812;50.942;3.644;2022-08-05T10:22:05;4.97;;;1.05;;
52948;SDS011;38812;50.942;3.644;2022-08-05T10:24:34;3.20;;;1.05;;
52948;SDS011;38812;50.942;3.644;2022-08-05T10:27:01;4.47;;;0.98;;
52948;SDS011;38812;50.942;3.644;2022-08-05T10:29:26;4.68;;;1.10;;
52948;SDS011;38812;50.942;3.644;2022-08-05T10:31:54;4.32;;;0.88;;
52948;SDS011;38812;50.942;3.644;2022-08-05T10:34:20;2.17;;;0.82;;
52948;SDS011;38812;50.942;3.644;2022-08-05T10:36:46;5.65;;;0.90;;
52948;SDS011;38812;50.942;3.644;2022-08-05T10:39:20;4.07;;;0.82;;
52948;SDS011;38812;50.942;3.644;2022-08-05T10:44:22;7.00;;;0.80;;
52948;SDS011;38812;50.942;3.644;2022-08-05T10:46:52;1.90;;;0.70;;
52948;SDS011;38812;50.942;3.644;2022-08-05T10:49:20;4.30;;;0.75;;
52948;SDS011;38812;50.942;3.644;2022-08-05T10:51:50;3.72;;;0.93;;
52948;SDS011;38812;50.942;3.644;2022-08-05T10:55:00;9.35;;;0.80;;
52948;SDS011;38812;50.942;3.644;2022-08-05T10:57:26;3.13;;;0.80;;
52948;SDS011;38812;50.942;3.644;2022-08-05T11:05:30;2.83;;;0.82;;
52948;SDS011;38812;50.942;3.644;2022-08-05T11:07:57;7.45;;;0.70;;
52948;SDS011;38812;50.942;3.644;2022-08-05T11:10:25;1.77;;;0.65;;
52948;SDS011;38812;50.942;3.644;2022-08-05T11:12:51;1.65;;;0.55;;
52948;SDS011;38812;50.942;3.644;2022-08-05T11:17:43;3.47;;;0.80;;
52948;SDS011;38812;50.942;3.644;2022-08-05T11:33:28;9.45;;;1.08;;
52948;SDS011;38812;50.942;3.644;2022-08-05T11:36:04;5.93;;;0.63;;
52948;SDS011;38812;50.942;3.644;2022-08-05T11:41:05;10.20;;;0.77;;
52948;SDS011;38812;50.942;3.644;2022-08-05T11:43:51;7.88;;;0.57;;
52948;SDS011;38812;50.942;3.644;2022-08-05T11:48:55;12.10;;;0.73;;
52948;SDS011;38812;50.942;3.644;2022-08-05T11:51:22;1.67;;;0.55;;
52948;SDS011;38812;50.942;3.644;2022-08-05T11:53:49;6.00;;;0.52;;
52948;SDS011;38812;50.942;3.644;2022-08-05T11:56:14;1.70;;;0.60;;
52948;SDS011;38812;50.942;3.644;2022-08-05T11:58:41;7.78;;;0.70;;
52948;SDS011;38812;50.942;3.644;2022-08-05T12:01:09;2.60;;;0.80;;
52948;SDS011;38812;50.942;3.644;2022-08-05T12:06:15;2.85;;;0.80;;
52948;SDS011;38812;50.942;3.644;2022-08-05T12:08:44;1.85;;;1.08;;
52948;SDS011;38812;50.942;3.644;2022-08-05T12:11:21;3.28;;;0.50;;
52948;SDS011;38812;50.942;3.644;2022-08-05T12:13:52;2.83;;;1.25;;
52948;SDS011;38812;50.942;3.644;2022-08-05T12:16:17;3.22;;;0.68;;
52948;SDS011;38812;50.942;3.644;2022-08-05T12:18:44;3.00;;;0.60;;
52948;SDS011;38812;50.942;3.644;2022-08-05T12:21:14;0.90;;;0.50;;
52948;SDS011;38812;50.942;3.644;2022-08-05T12:23:51;5.15;;;0.52;;
52948;SDS011;38812;50.942;3.644;2022-08-05T12:26:23;2.78;;;0.70;;
52948;SDS011;38812;50.942;3.644;2022-08-05T12:28:48;2.00;;;0.70;;
52948;SDS011;38812;50.942;3.644;2022-08-05T12:31:15;7.05;;;0.68;;
52948;SDS011;38812;50.942;3.644;2022-08-05T12:33:42;1.45;;;0.50;;
52948;SDS011;38812;50.942;3.644;2022-08-05T12:36:09;5.03;;;0.75;;
52948;SDS011;38812;50.942;3.644;2022-08-05T12:38:36;2.58;;;0.50;;
52948;SDS011;38812;50.942;3.644;2022-08-05T12:41:05;2.47;;;0.73;;
52948;SDS011;38812;50.942;3.644;2022-08-05T12:43:32;7.50;;;0.70;;
52948;SDS011;38812;50.942;3.644;2022-08-05T12:45:58;1.33;;;0.60;;
52948;SDS011;38812;50.942;3.644;2022-08-05T12:48:23;2.10;;;0.40;;
52948;SDS011;38812;50.942;3.644;2022-08-05T12:51:08;3.15;;;0.50;;
52948;SDS011;38812;50.942;3.644;2022-08-05T12:53:44;9.25;;;0.57;;
52948;SDS011;38812;50.942;3.644;2022-08-05T12:56:22;1.60;;;0.60;;
52948;SDS011;38812;50.942;3.644;2022-08-05T13:01:36;2.05;;;0.60;;
52948;SDS011;38812;50.942;3.644;2022-08-05T13:04:02;3.97;;;0.70;;
52948;SDS011;38812;50.942;3.644;2022-08-05T13:06:28;1.45;;;0.52;;
52948;SDS011;38812;50.942;3.644;2022-08-05T13:08:54;5.25;;;0.50;;
52948;SDS011;38812;50.942;3.644;2022-08-05T13:11:21;0.73;;;0.52;;
52948;SDS011;38812;50.942;3.644;2022-08-05T13:13:55;3.03;;;0.50;;
52948;SDS011;38812;50.942;3.644;2022-08-05T13:16:21;2.55;;;0.70;;
52948;SDS011;38812;50.942;3.644;2022-08-05T13:18:52;5.05;;;1.23;;
52948;SDS011;38812;50.942;3.644;2022-08-05T13:21:19;3.72;;;0.60;;
52948;SDS011;38812;50.942;3.644;2022-08-05T13:23:44;2.17;;;0.50;;
52948;SDS011;38812;50.942;3.644;2022-08-05T13:26:10;4.15;;;0.80;;
52948;SDS011;38812;50.942;3.644;2022-08-05T13:28:35;0.45;;;0.45;;
52948;SDS011;38812;50.942;3.644;2022-08-05T13:31:01;3.47;;;0.50;;
52948;SDS011;38812;50.942;3.644;2022-08-05T13:33:26;1.73;;;0.73;;
52948;SDS011;38812;50.942;3.644;2022-08-05T13:35:51;3.72;;;1.33;;
52948;SDS011;38812;50.942;3.644;2022-08-05T13:38:17;1.13;;;0.57;;
52948;SDS011;38812;50.942;3.644;2022-08-05T13:40:44;1.88;;;0.60;;
52948;SDS011;38812;50.942;3.644;2022-08-05T13:43:10;2.90;;;0.50;;
52948;SDS011;38812;50.942;3.644;2022-08-05T13:45:35;6.50;;;0.75;;
52948;SDS011;38812;50.942;3.644;2022-08-05T13:48:01;4.18;;;0.40;;
52948;SDS011;38812;50.942;3.644;2022-08-05T13:50:26;4.90;;;0.73;;
52948;SDS011;38812;50.942;3.644;2022-08-05T13:52:52;2.20;;;0.45;;
52948;SDS011;38812;50.942;3.644;2022-08-05T13:55:17;2.83;;;0.45;;
52948;SDS011;38812;50.942;3.644;2022-08-05T13:57:42;4.22;;;0.50;;
52948;SDS011;38812;50.942;3.644;2022-08-05T14:00:08;2.97;;;0.60;;
52948;SDS011;38812;50.942;3.644;2022-08-05T14:02:34;1.30;;;0.50;;
52948;SDS011;38812;50.942;3.644;2022-08-05T14:04:59;2.63;;;0.88;;
52948;SDS011;38812;50.942;3.644;2022-08-05T14:07:41;0.40;;;0.30;;
52948;SDS011;38812;50.942;3.644;2022-08-05T14:10:09;3.35;;;1.10;;
52948;SDS011;38812;50.942;3.644;2022-08-05T14:12:39;2.15;;;0.68;;
52948;SDS011;38812;50.942;3.644;2022-08-05T14:15:05;4.65;;;0.35;;
52948;SDS011;38812;50.942;3.644;2022-08-05T14:17:31;4.40;;;0.68;;
52948;SDS011;38812;50.942;3.644;2022-08-05T14:19:56;2.13;;;0.80;;
52948;SDS011;38812;50.942;3.644;2022-08-05T14:22:22;4.68;;;0.60;;
52948;SDS011;38812;50.942;3.644;2022-08-05T14:24:47;4.05;;;0.73;;
52948;SDS011;38812;50.942;3.644;2022-08-05T14:27:14;4.00;;;1.13;;
52948;SDS011;38812;50.942;3.644;2022-08-05T14:29:39;3.30;;;0.80;;
52948;SDS011;38812;50.942;3.644;2022-08-05T14:32:05;8.90;;;0.90;;
52948;SDS011;38812;50.942;3.644;2022-08-05T14:34:31;5.68;;;1.10;;
52948;SDS011;38812;50.942;3.644;2022-08-05T14:36:57;3.42;;;1.00;;
52948;SDS011;38812;50.942;3.644;2022-08-05T14:39:22;6.45;;;1.02;;
52948;SDS011;38812;50.942;3.644;2022-08-05T14:41:48;6.22;;;0.95;;
52948;SDS011;38812;50.942;3.644;2022-08-05T14:44:13;5.68;;;0.93;;
52948;SDS011;38812;50.942;3.644;2022-08-05T14:46:39;3.60;;;0.93;;
52948;SDS011;38812;50.942;3.644;2022-08-05T14:49:04;4.22;;;0.75;;
52948;SDS011;38812;50.942;3.644;2022-08-05T14:51:30;2.97;;;0.95;;
52948;SDS011;38812;50.942;3.644;2022-08-05T14:53:56;4.20;;;1.17;;
52948;SDS011;38812;50.942;3.644;2022-08-05T14:56:21;3.45;;;0.77;;
52948;SDS011;38812;50.942;3.644;2022-08-05T14:58:47;3.22;;;0.68;;
52948;SDS011;38812;50.942;3.644;2022-08-05T15:01:12;5.32;;;0.77;;
52948;SDS011;38812;50.942;3.644;2022-08-05T15:03:38;2.42;;;0.95;;
52948;SDS011;38812;50.942;3.644;2022-08-05T15:06:03;2.28;;;0.80;;
52948;SDS011;38812;50.942;3.644;2022-08-05T15:08:30;13.68;;;1.55;;
52948;SDS011;38812;50.942;3.644;2022-08-05T15:10:55;7.32;;;0.93;;
52948;SDS011;38812;50.942;3.644;2022-08-05T15:13:21;2.97;;;1.00;;
52948;SDS011;38812;50.942;3.644;2022-08-05T15:15:46;2.35;;;1.08;;
52948;SDS011;38812;50.942;3.644;2022-08-05T15:18:12;5.70;;;0.60;;
52948;SDS011;38812;50.942;3.644;2022-08-05T15:20:37;3.97;;;1.08;;
52948;SDS011;38812;50.942;3.644;2022-08-05T15:23:03;11.02;;;1.02;;
52948;SDS011;38812;50.942;3.644;2022-08-05T15:25:30;2.78;;;1.30;;
52948;SDS011;38812;50.942;3.644;2022-08-05T15:27:55;5.78;;;0.80;;
52948;SDS011;38812;50.942;3.644;2022-08-05T15:30:20;2.20;;;0.75;;
52948;SDS011;38812;50.942;3.644;2022-08-05T15:32:46;3.13;;;1.45;;
52948;SDS011;38812;50.942;3.644;2022-08-05T15:35:11;3.10;;;0.63;;
52948;SDS011;38812;50.942;3.644;2022-08-05T15:37:36;3.03;;;0.95;;
52948;SDS011;38812;50.942;3.644;2022-08-05T15:40:02;2.42;;;0.80;;
52948;SDS011;38812;50.942;3.644;2022-08-05T15:42:28;4.30;;;0.90;;
52948;SDS011;38812;50.942;3.644;2022-08-05T15:44:53;3.53;;;0.70;;